sensor_id;sensor_type;location;lat;lon;timestamp;P1;durP1;ratioP1;P2;durP2;ratioP2
42134;SDS011;28312;43.460;11.810;2022-12-05T00:03:13;4.13;;;2.08;;
42134;SDS011;28312;43.460;11.810;2022-12-05T00:07:19;3.13;;;1.73;;
42134;SDS011;28312;43.460;11.810;2022-12-05T00:11:25;4.35;;;1.73;;
42134;SDS011;28312;43.460;11.810;2022-12-05T00:15:30;2.22;;;1.30;;
42134;SDS011;28312;43.460;11.810;2022-12-05T00:19:37;3.13;;;1.42;;
42134;SDS011;28312;43.460;11.810;2022-12-05T00:23:41;2.40;;;1.60;;
42134;SDS011;28312;43.460;11.810;2022-12-05T00:27:44;4.63;;;2.22;;
42134;SDS011;28312;43.460;11.810;2022-12-05T00:31:47;5.57;;;1.83;;
42134;SDS011;28312;43.460;11.810;2022-12-05T00:35:51;2.95;;;1.90;;
42134;SDS011;28312;43.460;11.810;2022-12-05T00:40:02;2.78;;;1.50;;
42134;SDS011;28312;43.460;11.810;2022-12-05T00:44:06;2.47;;;1.60;;
42134;SDS011;28312;43.460;11.810;2022-12-05T00:48:09;1.95;;;1.33;;
42134;SDS011;28312;43.460;11.810;2022-12-05T00:52:13;4.18;;;2.97;;
42134;SDS011;28312;43.460;11.810;2022-12-05T00:56:19;3.72;;;1.98;;
42134;SDS011;28312;43.460;11.810;2022-12-05T01:00:23;2.97;;;1.50;;
42134;SDS011;28312;43.460;11.810;2022-12-05T01:04:28;3.85;;;1.30;;
42134;SDS011;28312;43.460;11.810;2022-12-05T01:08:36;5.45;;;2.30;;
42134;SDS011;28312;43.460;11.810;2022-12-05T01:12:39;5.45;;;1.90;;
42134;SDS011;28312;43.460;11.810;2022-12-05T01:16:44;10.38;;;2.75;;
42134;SDS011;28312;43.460;11.810;2022-12-05T01:20:50;4.82;;;2.53;;
42134;SDS011;28312;43.460;11.810;2022-12-05T01:24:53;5.05;;;2.25;;
42134;SDS011;28312;43.460;11.810;2022-12-05T01:28:57;5.45;;;1.60;;
42134;SDS011;28312;43.460;11.810;2022-12-05T01:33:03;5.03;;;1.42;;
42134;SDS011;28312;43.460;11.810;2022-12-05T01:37:07;3.13;;;1.58;;
42134;SDS011;28312;43.460;11.810;2022-12-05T01:41:12;5.53;;;1.95;;
42134;SDS011;28312;43.460;11.810;2022-12-05T01:45:51;3.80;;;1.90;;
42134;SDS011;28312;43.460;11.810;2022-12-05T01:49:48;3.80;;;2.00;;
42134;SDS011;28312;43.460;11.810;2022-12-05T01:53:52;2.83;;;1.35;;
42134;SDS011;28312;43.460;11.810;2022-12-05T01:57:55;2.38;;;1.27;;
42134;SDS011;28312;43.460;11.810;2022-12-05T02:02:04;4.35;;;1.92;;
42134;SDS011;28312;43.460;11.810;2022-12-05T02:06:09;2.60;;;1.38;;
42134;SDS011;28312;43.460;11.810;2022-12-05T02:10:15;3.45;;;1.73;;
42134;SDS011;28312;43.460;11.810;2022-12-05T02:18:42;3.22;;;1.30;;
42134;SDS011;28312;43.460;11.810;2022-12-05T02:41:00;3.13;;;1.80;;
42134;SDS011;28312;43.460;11.810;2022-12-05T02:45:13;2.95;;;1.52;;
42134;SDS011;28312;43.460;11.810;2022-12-05T02:49:20;5.20;;;2.42;;
42134;SDS011;28312;43.460;11.810;2022-12-05T02:53:27;7.20;;;2.67;;
42134;SDS011;28312;43.460;11.810;2022-12-05T02:57:34;2.30;;;1.52;;
42134;SDS011;28312;43.460;11.810;2022-12-05T03:01:42;2.13;;;1.53;;
42134;SDS011;28312;43.460;11.810;2022-12-05T03:10:26;2.38;;;1.40;;
42134;SDS011;28312;43.460;11.810;2022-12-05T03:14:39;5.05;;;2.05;;
42134;SDS011;28312;43.460;11.810;2022-12-05T03:18:59;4.43;;;1.33;;
42134;SDS011;28312;43.460;11.810;2022-12-05T03:23:14;4.85;;;2.08;;
42134;SDS011;28312;43.460;11.810;2022-12-05T03:27:38;3.53;;;1.85;;
42134;SDS011;28312;43.460;11.810;2022-12-05T03:31:45;2.28;;;1.42;;
42134;SDS011;28312;43.460;11.810;2022-12-05T03:36:22;6.28;;;1.50;;
42134;SDS011;28312;43.460;11.810;2022-12-05T03:44:44;2.87;;;1.30;;
42134;SDS011;28312;43.460;11.810;2022-12-05T03:53:45;1.92;;;1.38;;
42134;SDS011;28312;43.460;11.810;2022-12-05T03:58:24;4.80;;;1.48;;
42134;SDS011;28312;43.460;11.810;2022-12-05T04:02:34;2.85;;;1.30;;
42134;SDS011;28312;43.460;11.810;2022-12-05T04:06:47;1.60;;;1.10;;
42134;SDS011;28312;43.460;11.810;2022-12-05T04:10:56;1.75;;;1.20;;
42134;SDS011;28312;43.460;11.810;2022-12-05T04:15:05;2.33;;;1.35;;
42134;SDS011;28312;43.460;11.810;2022-12-05T04:19:24;1.92;;;1.13;;
42134;SDS011;28312;43.460;11.810;2022-12-05T04:24:09;3.85;;;1.48;;
42134;SDS011;28312;43.460;11.810;2022-12-05T04:29:16;5.80;;;1.52;;
42134;SDS011;28312;43.460;11.810;2022-12-05T04:33:42;2.67;;;1.35;;
42134;SDS011;28312;43.460;11.810;2022-12-05T04:37:56;2.90;;;1.25;;
42134;SDS011;28312;43.460;11.810;2022-12-05T04:42:08;2.00;;;1.08;;
42134;SDS011;28312;43.460;11.810;2022-12-05T04:46:19;2.22;;;1.25;;
42134;SDS011;28312;43.460;11.810;2022-12-05T04:50:26;2.50;;;1.30;;
42134;SDS011;28312;43.460;11.810;2022-12-05T04:54:36;4.57;;;1.42;;
42134;SDS011;28312;43.460;11.810;2022-12-05T04:58:45;2.35;;;1.50;;
42134;SDS011;28312;43.460;11.810;2022-12-05T05:02:50;2.70;;;1.60;;
42134;SDS011;28312;43.460;11.810;2022-12-05T05:07:10;2.75;;;1.75;;
42134;SDS011;28312;43.460;11.810;2022-12-05T05:11:16;2.08;;;1.63;;
42134;SDS011;28312;43.460;11.810;2022-12-05T05:15:25;2.10;;;1.20;;
42134;SDS011;28312;43.460;11.810;2022-12-05T05:19:28;2.22;;;1.10;;
42134;SDS011;28312;43.460;11.810;2022-12-05T05:23:32;3.42;;;1.33;;
42134;SDS011;28312;43.460;11.810;2022-12-05T05:27:35;1.60;;;0.93;;
42134;SDS011;28312;43.460;11.810;2022-12-05T05:31:39;1.52;;;1.00;;
42134;SDS011;28312;43.460;11.810;2022-12-05T05:35:43;3.40;;;1.90;;
42134;SDS011;28312;43.460;11.810;2022-12-05T05:39:46;1.83;;;1.25;;
42134;SDS011;28312;43.460;11.810;2022-12-05T05:43:50;8.57;;;4.35;;
42134;SDS011;28312;43.460;11.810;2022-12-05T05:47:55;5.10;;;3.22;;
42134;SDS011;28312;43.460;11.810;2022-12-05T05:51:58;2.90;;;1.55;;
42134;SDS011;28312;43.460;11.810;2022-12-05T05:56:02;2.85;;;1.55;;
42134;SDS011;28312;43.460;11.810;2022-12-05T06:00:07;5.80;;;1.95;;
42134;SDS011;28312;43.460;11.810;2022-12-05T06:04:11;2.20;;;1.33;;
42134;SDS011;28312;43.460;11.810;2022-12-05T06:08:28;2.03;;;1.10;;
42134;SDS011;28312;43.460;11.810;2022-12-05T06:12:32;2.40;;;1.20;;
42134;SDS011;28312;43.460;11.810;2022-12-05T06:16:36;3.85;;;1.38;;
42134;SDS011;28312;43.460;11.810;2022-12-05T06:20:50;4.40;;;1.77;;
42134;SDS011;28312;43.460;11.810;2022-12-05T06:24:55;2.78;;;1.80;;
42134;SDS011;28312;43.460;11.810;2022-12-05T06:28:59;3.45;;;1.70;;
42134;SDS011;28312;43.460;11.810;2022-12-05T06:33:02;1.92;;;1.13;;
42134;SDS011;28312;43.460;11.810;2022-12-05T06:37:06;2.22;;;1.33;;
42134;SDS011;28312;43.460;11.810;2022-12-05T06:41:11;2.25;;;1.30;;
42134;SDS011;28312;43.460;11.810;2022-12-05T06:45:17;2.30;;;1.10;;
42134;SDS011;28312;43.460;11.810;2022-12-05T06:49:21;4.97;;;2.03;;
42134;SDS011;28312;43.460;11.810;2022-12-05T06:53:34;1.75;;;0.82;;
42134;SDS011;28312;43.460;11.810;2022-12-05T06:57:37;0.80;;;0.60;;
42134;SDS011;28312;43.460;11.810;2022-12-05T07:01:40;1.27;;;0.88;;
42134;SDS011;28312;43.460;11.810;2022-12-05T07:05:44;2.65;;;1.00;;
42134;SDS011;28312;43.460;11.810;2022-12-05T07:09:48;4.60;;;1.33;;
42134;SDS011;28312;43.460;11.810;2022-12-05T07:13:55;2.38;;;1.50;;
42134;SDS011;28312;43.460;11.810;2022-12-05T07:17:59;2.45;;;1.13;;
42134;SDS011;28312;43.460;11.810;2022-12-05T07:22:02;3.22;;;1.52;;
42134;SDS011;28312;43.460;11.810;2022-12-05T07:26:06;2.10;;;0.90;;
42134;SDS011;28312;43.460;11.810;2022-12-05T07:30:12;1.70;;;0.93;;
42134;SDS011;28312;43.460;11.810;2022-12-05T07:34:16;2.97;;;0.90;;
42134;SDS011;28312;43.460;11.810;2022-12-05T07:38:19;1.00;;;0.70;;
42134;SDS011;28312;43.460;11.810;2022-12-05T07:42:23;1.70;;;0.95;;
42134;SDS011;28312;43.460;11.810;2022-12-05T07:46:27;1.63;;;0.60;;
42134;SDS011;28312;43.460;11.810;2022-12-05T07:50:31;2.53;;;1.30;;
42134;SDS011;28312;43.460;11.810;2022-12-05T07:54:36;1.55;;;0.85;;
42134;SDS011;28312;43.460;11.810;2022-12-05T07:58:39;1.67;;;1.08;;
42134;SDS011;28312;43.460;11.810;2022-12-05T08:02:43;3.00;;;1.25;;
42134;SDS011;28312;43.460;11.810;2022-12-05T08:06:47;1.80;;;1.17;;
42134;SDS011;28312;43.460;11.810;2022-12-05T08:10:51;2.30;;;1.40;;
42134;SDS011;28312;43.460;11.810;2022-12-05T08:14:55;3.47;;;1.48;;
42134;SDS011;28312;43.460;11.810;2022-12-05T08:19:01;2.40;;;1.30;;
42134;SDS011;28312;43.460;11.810;2022-12-05T08:23:07;6.55;;;1.65;;
42134;SDS011;28312;43.460;11.810;2022-12-05T08:27:11;3.53;;;1.83;;
42134;SDS011;28312;43.460;11.810;2022-12-05T08:31:22;4.85;;;2.35;;
42134;SDS011;28312;43.460;11.810;2022-12-05T08:35:27;2.60;;;1.48;;
42134;SDS011;28312;43.460;11.810;2022-12-05T08:39:30;2.25;;;1.17;;
42134;SDS011;28312;43.460;11.810;2022-12-05T08:43:40;2.30;;;1.40;;
42134;SDS011;28312;43.460;11.810;2022-12-05T08:47:44;1.55;;;0.98;;
42134;SDS011;28312;43.460;11.810;2022-12-05T08:51:47;2.13;;;1.08;;
42134;SDS011;28312;43.460;11.810;2022-12-05T08:55:51;1.63;;;0.98;;
42134;SDS011;28312;43.460;11.810;2022-12-05T08:59:54;2.80;;;1.60;;
42134;SDS011;28312;43.460;11.810;2022-12-05T09:03:58;3.20;;;1.38;;
42134;SDS011;28312;43.460;11.810;2022-12-05T09:08:02;1.85;;;0.90;;
42134;SDS011;28312;43.460;11.810;2022-12-05T09:12:06;1.75;;;1.10;;
42134;SDS011;28312;43.460;11.810;2022-12-05T09:16:10;3.58;;;2.08;;
42134;SDS011;28312;43.460;11.810;2022-12-05T09:20:16;4.22;;;3.13;;
42134;SDS011;28312;43.460;11.810;2022-12-05T09:24:20;2.08;;;1.42;;
42134;SDS011;28312;43.460;11.810;2022-12-05T09:28:26;2.10;;;1.07;;
42134;SDS011;28312;43.460;11.810;2022-12-05T09:32:30;2.15;;;0.82;;
42134;SDS011;28312;43.460;11.810;2022-12-05T09:36:34;1.60;;;0.98;;
42134;SDS011;28312;43.460;11.810;2022-12-05T09:40:39;1.50;;;0.90;;
42134;SDS011;28312;43.460;11.810;2022-12-05T09:44:50;2.10;;;1.10;;
42134;SDS011;28312;43.460;11.810;2022-12-05T09:49:03;4.40;;;2.13;;
42134;SDS011;28312;43.460;11.810;2022-12-05T09:53:24;5.78;;;3.58;;
42134;SDS011;28312;43.460;11.810;2022-12-05T09:57:39;3.90;;;2.10;;
42134;SDS011;28312;43.460;11.810;2022-12-05T10:10:38;4.65;;;2.80;;
42134;SDS011;28312;43.460;11.810;2022-12-05T10:19:49;2.05;;;1.08;;
42134;SDS011;28312;43.460;11.810;2022-12-05T10:23:57;3.25;;;1.55;;
42134;SDS011;28312;43.460;11.810;2022-12-05T10:28:05;2.42;;;1.20;;
42134;SDS011;28312;43.460;11.810;2022-12-05T10:32:30;2.63;;;1.40;;
42134;SDS011;28312;43.460;11.810;2022-12-05T10:36:40;2.70;;;1.60;;
42134;SDS011;28312;43.460;11.810;2022-12-05T10:40:56;2.03;;;1.20;;
42134;SDS011;28312;43.460;11.810;2022-12-05T10:45:03;1.95;;;1.15;;
42134;SDS011;28312;43.460;11.810;2022-12-05T10:49:10;3.88;;;2.08;;
42134;SDS011;28312;43.460;11.810;2022-12-05T10:53:22;4.78;;;3.17;;
42134;SDS011;28312;43.460;11.810;2022-12-05T10:57:50;6.87;;;5.97;;
42134;SDS011;28312;43.460;11.810;2022-12-05T11:01:56;11.32;;;3.38;;
42134;SDS011;28312;43.460;11.810;2022-12-05T11:06:14;7.45;;;1.88;;
42134;SDS011;28312;43.460;11.810;2022-12-05T11:10:26;2.70;;;1.75;;
42134;SDS011;28312;43.460;11.810;2022-12-05T11:14:40;8.27;;;3.00;;
42134;SDS011;28312;43.460;11.810;2022-12-05T11:19:46;3.42;;;1.65;;
42134;SDS011;28312;43.460;11.810;2022-12-05T11:23:32;2.60;;;1.02;;
42134;SDS011;28312;43.460;11.810;2022-12-05T11:27:36;2.80;;;1.45;;
42134;SDS011;28312;43.460;11.810;2022-12-05T11:31:40;8.02;;;2.60;;
42134;SDS011;28312;43.460;11.810;2022-12-05T11:35:54;5.80;;;2.40;;
42134;SDS011;28312;43.460;11.810;2022-12-05T11:40:00;3.63;;;1.88;;
42134;SDS011;28312;43.460;11.810;2022-12-05T11:58:21;2.13;;;1.20;;
42134;SDS011;28312;43.460;11.810;2022-12-05T12:11:36;4.80;;;1.40;;
42134;SDS011;28312;43.460;11.810;2022-12-05T12:24:52;5.10;;;2.78;;
42134;SDS011;28312;43.460;11.810;2022-12-05T12:46:57;2.13;;;1.27;;
42134;SDS011;28312;43.460;11.810;2022-12-05T12:51:03;6.35;;;2.83;;
42134;SDS011;28312;43.460;11.810;2022-12-05T12:59:41;5.63;;;2.30;;
42134;SDS011;28312;43.460;11.810;2022-12-05T13:08:06;2.38;;;1.38;;
42134;SDS011;28312;43.460;11.810;2022-12-05T13:12:42;4.90;;;2.33;;
42134;SDS011;28312;43.460;11.810;2022-12-05T13:16:48;4.20;;;2.58;;
42134;SDS011;28312;43.460;11.810;2022-12-05T13:20:54;3.28;;;1.67;;
42134;SDS011;28312;43.460;11.810;2022-12-05T13:25:00;2.03;;;1.48;;
42134;SDS011;28312;43.460;11.810;2022-12-05T13:29:04;2.55;;;0.90;;
42134;SDS011;28312;43.460;11.810;2022-12-05T13:33:08;1.90;;;1.30;;
42134;SDS011;28312;43.460;11.810;2022-12-05T13:37:28;3.65;;;2.72;;
42134;SDS011;28312;43.460;11.810;2022-12-05T13:41:52;2.10;;;1.30;;
42134;SDS011;28312;43.460;11.810;2022-12-05T13:46:21;2.90;;;1.48;;
42134;SDS011;28312;43.460;11.810;2022-12-05T13:50:39;4.90;;;2.97;;
42134;SDS011;28312;43.460;11.810;2022-12-05T13:55:10;4.25;;;2.95;;
42134;SDS011;28312;43.460;11.810;2022-12-05T14:04:39;4.75;;;2.10;;
42134;SDS011;28312;43.460;11.810;2022-12-05T14:08:50;4.70;;;2.03;;
42134;SDS011;28312;43.460;11.810;2022-12-05T14:12:59;4.05;;;2.53;;
42134;SDS011;28312;43.460;11.810;2022-12-05T14:17:05;3.10;;;2.20;;
42134;SDS011;28312;43.460;11.810;2022-12-05T14:21:12;3.38;;;2.05;;
42134;SDS011;28312;43.460;11.810;2022-12-05T14:34:20;2.58;;;1.30;;
42134;SDS011;28312;43.460;11.810;2022-12-05T14:38:31;6.13;;;2.17;;
42134;SDS011;28312;43.460;11.810;2022-12-05T14:46:53;7.75;;;2.17;;
42134;SDS011;28312;43.460;11.810;2022-12-05T14:50:58;5.60;;;3.35;;
42134;SDS011;28312;43.460;11.810;2022-12-05T14:55:10;4.43;;;2.10;;
42134;SDS011;28312;43.460;11.810;2022-12-05T14:59:31;2.28;;;1.25;;
42134;SDS011;28312;43.460;11.810;2022-12-05T15:04:02;2.08;;;0.90;;
42134;SDS011;28312;43.460;11.810;2022-12-05T15:08:12;5.38;;;1.70;;
42134;SDS011;28312;43.460;11.810;2022-12-05T15:12:21;5.35;;;2.17;;
42134;SDS011;28312;43.460;11.810;2022-12-05T15:16:27;9.65;;;4.07;;
42134;SDS011;28312;43.460;11.810;2022-12-05T15:20:45;6.60;;;3.97;;
42134;SDS011;28312;43.460;11.810;2022-12-05T15:24:52;5.50;;;2.72;;
42134;SDS011;28312;43.460;11.810;2022-12-05T15:28:57;6.30;;;3.40;;
42134;SDS011;28312;43.460;11.810;2022-12-05T15:33:19;8.60;;;4.15;;
42134;SDS011;28312;43.460;11.810;2022-12-05T15:37:23;6.13;;;3.67;;
42134;SDS011;28312;43.460;11.810;2022-12-05T15:41:31;10.57;;;4.82;;
42134;SDS011;28312;43.460;11.810;2022-12-05T15:45:35;6.72;;;3.20;;
42134;SDS011;28312;43.460;11.810;2022-12-05T15:49:39;4.97;;;2.97;;
42134;SDS011;28312;43.460;11.810;2022-12-05T15:53:57;4.72;;;2.40;;
42134;SDS011;28312;43.460;11.810;2022-12-05T16:02:42;9.87;;;3.13;;
42134;SDS011;28312;43.460;11.810;2022-12-05T16:06:58;6.18;;;2.58;;
42134;SDS011;28312;43.460;11.810;2022-12-05T16:11:07;5.80;;;3.97;;
42134;SDS011;28312;43.460;11.810;2022-12-05T16:15:16;16.88;;;7.28;;
42134;SDS011;28312;43.460;11.810;2022-12-05T16:19:23;8.05;;;4.97;;
42134;SDS011;28312;43.460;11.810;2022-12-05T16:23:28;11.77;;;5.00;;
42134;SDS011;28312;43.460;11.810;2022-12-05T16:31:38;7.25;;;4.25;;
42134;SDS011;28312;43.460;11.810;2022-12-05T16:35:44;8.07;;;5.68;;
42134;SDS011;28312;43.460;11.810;2022-12-05T16:39:48;14.35;;;8.07;;
42134;SDS011;28312;43.460;11.810;2022-12-05T16:43:52;11.18;;;6.90;;
42134;SDS011;28312;43.460;11.810;2022-12-05T16:47:56;13.15;;;6.47;;
42134;SDS011;28312;43.460;11.810;2022-12-05T16:52:02;12.15;;;6.63;;
42134;SDS011;28312;43.460;11.810;2022-12-05T16:56:28;9.43;;;5.95;;
42134;SDS011;28312;43.460;11.810;2022-12-05T17:00:33;13.10;;;9.38;;
42134;SDS011;28312;43.460;11.810;2022-12-05T17:04:37;11.98;;;6.78;;
42134;SDS011;28312;43.460;11.810;2022-12-05T17:08:41;8.23;;;5.03;;
42134;SDS011;28312;43.460;11.810;2022-12-05T17:12:44;12.05;;;4.63;;
42134;SDS011;28312;43.460;11.810;2022-12-05T17:16:49;10.13;;;7.30;;
42134;SDS011;28312;43.460;11.810;2022-12-05T17:20:53;9.27;;;4.93;;
42134;SDS011;28312;43.460;11.810;2022-12-05T17:24:59;13.75;;;7.07;;
42134;SDS011;28312;43.460;11.810;2022-12-05T17:29:04;8.85;;;5.18;;
42134;SDS011;28312;43.460;11.810;2022-12-05T17:33:12;14.27;;;7.72;;
42134;SDS011;28312;43.460;11.810;2022-12-05T17:37:17;9.05;;;6.18;;
42134;SDS011;28312;43.460;11.810;2022-12-05T17:41:23;8.07;;;6.45;;
42134;SDS011;28312;43.460;11.810;2022-12-05T17:45:31;11.07;;;7.60;;
42134;SDS011;28312;43.460;11.810;2022-12-05T17:49:37;7.15;;;4.03;;
42134;SDS011;28312;43.460;11.810;2022-12-05T17:53:42;6.70;;;4.85;;
42134;SDS011;28312;43.460;11.810;2022-12-05T17:57:49;8.73;;;6.38;;
42134;SDS011;28312;43.460;11.810;2022-12-05T18:01:54;6.93;;;4.72;;
42134;SDS011;28312;43.460;11.810;2022-12-05T18:06:02;9.38;;;4.07;;
42134;SDS011;28312;43.460;11.810;2022-12-05T18:10:14;5.60;;;3.60;;
42134;SDS011;28312;43.460;11.810;2022-12-05T18:14:24;6.45;;;4.00;;
42134;SDS011;28312;43.460;11.810;2022-12-05T18:22:36;8.30;;;3.25;;
42134;SDS011;28312;43.460;11.810;2022-12-05T18:26:42;10.88;;;7.15;;
42134;SDS011;28312;43.460;11.810;2022-12-05T18:30:47;7.82;;;4.30;;
42134;SDS011;28312;43.460;11.810;2022-12-05T18:34:52;7.20;;;4.78;;
42134;SDS011;28312;43.460;11.810;2022-12-05T18:38:58;7.55;;;4.50;;
42134;SDS011;28312;43.460;11.810;2022-12-05T18:43:04;6.38;;;5.20;;
42134;SDS011;28312;43.460;11.810;2022-12-05T18:47:11;8.60;;;3.92;;
42134;SDS011;28312;43.460;11.810;2022-12-05T18:51:17;8.52;;;5.25;;
42134;SDS011;28312;43.460;11.810;2022-12-05T18:55:24;7.40;;;4.32;;
42134;SDS011;28312;43.460;11.810;2022-12-05T18:59:49;6.57;;;3.67;;
42134;SDS011;28312;43.460;11.810;2022-12-05T19:03:57;8.10;;;5.10;;
42134;SDS011;28312;43.460;11.810;2022-12-05T19:08:03;20.38;;;8.68;;
42134;SDS011;28312;43.460;11.810;2022-12-05T19:12:08;11.30;;;6.55;;
42134;SDS011;28312;43.460;11.810;2022-12-05T19:16:15;7.20;;;5.63;;
42134;SDS011;28312;43.460;11.810;2022-12-05T19:20:21;8.02;;;4.65;;
42134;SDS011;28312;43.460;11.810;2022-12-05T19:24:27;5.82;;;4.10;;
42134;SDS011;28312;43.460;11.810;2022-12-05T19:28:33;4.88;;;3.85;;
42134;SDS011;28312;43.460;11.810;2022-12-05T19:32:38;6.57;;;3.67;;
42134;SDS011;28312;43.460;11.810;2022-12-05T19:36:45;9.13;;;4.72;;
42134;SDS011;28312;43.460;11.810;2022-12-05T19:40:55;9.33;;;5.10;;
42134;SDS011;28312;43.460;11.810;2022-12-05T19:44:59;4.15;;;3.05;;
42134;SDS011;28312;43.460;11.810;2022-12-05T19:49:10;5.45;;;3.83;;
42134;SDS011;28312;43.460;11.810;2022-12-05T19:53:16;4.43;;;3.50;;
42134;SDS011;28312;43.460;11.810;2022-12-05T19:57:19;9.13;;;4.35;;
42134;SDS011;28312;43.460;11.810;2022-12-05T20:01:26;4.78;;;3.33;;
42134;SDS011;28312;43.460;11.810;2022-12-05T20:05:32;4.03;;;3.05;;
42134;SDS011;28312;43.460;11.810;2022-12-05T20:09:35;9.07;;;3.08;;
42134;SDS011;28312;43.460;11.810;2022-12-05T20:13:42;4.95;;;3.08;;
42134;SDS011;28312;43.460;11.810;2022-12-05T20:17:50;4.53;;;2.67;;
42134;SDS011;28312;43.460;11.810;2022-12-05T20:21:54;8.85;;;4.18;;
42134;SDS011;28312;43.460;11.810;2022-12-05T20:26:42;11.25;;;6.68;;
42134;SDS011;28312;43.460;11.810;2022-12-05T20:30:29;4.43;;;2.90;;
42134;SDS011;28312;43.460;11.810;2022-12-05T20:34:34;5.03;;;4.07;;
42134;SDS011;28312;43.460;11.810;2022-12-05T20:38:44;13.10;;;5.28;;
42134;SDS011;28312;43.460;11.810;2022-12-05T20:42:48;11.45;;;4.40;;
42134;SDS011;28312;43.460;11.810;2022-12-05T20:46:52;6.18;;;3.03;;
42134;SDS011;28312;43.460;11.810;2022-12-05T20:51:01;4.13;;;2.90;;
42134;SDS011;28312;43.460;11.810;2022-12-05T20:55:10;4.55;;;3.35;;
42134;SDS011;28312;43.460;11.810;2022-12-05T20:59:13;5.72;;;3.65;;
42134;SDS011;28312;43.460;11.810;2022-12-05T21:03:17;4.28;;;2.67;;
42134;SDS011;28312;43.460;11.810;2022-12-05T21:07:21;4.15;;;3.13;;
42134;SDS011;28312;43.460;11.810;2022-12-05T21:11:24;5.63;;;3.53;;
42134;SDS011;28312;43.460;11.810;2022-12-05T21:15:29;5.25;;;3.00;;
42134;SDS011;28312;43.460;11.810;2022-12-05T21:19:32;6.85;;;3.67;;
42134;SDS011;28312;43.460;11.810;2022-12-05T21:23:40;6.25;;;3.53;;
42134;SDS011;28312;43.460;11.810;2022-12-05T21:27:46;8.60;;;3.10;;
42134;SDS011;28312;43.460;11.810;2022-12-05T21:31:50;4.60;;;3.22;;
42134;SDS011;28312;43.460;11.810;2022-12-05T21:35:54;4.93;;;2.25;;
42134;SDS011;28312;43.460;11.810;2022-12-05T21:40:03;3.83;;;2.75;;
42134;SDS011;28312;43.460;11.810;2022-12-05T21:44:07;5.25;;;3.05;;
42134;SDS011;28312;43.460;11.810;2022-12-05T21:48:11;10.00;;;5.35;;
42134;SDS011;28312;43.460;11.810;2022-12-05T21:52:37;7.93;;;3.57;;
42134;SDS011;28312;43.460;11.810;2022-12-05T21:56:41;4.95;;;2.50;;
42134;SDS011;28312;43.460;11.810;2022-12-05T22:00:45;4.78;;;3.17;;
42134;SDS011;28312;43.460;11.810;2022-12-05T22:04:48;6.35;;;3.92;;
42134;SDS011;28312;43.460;11.810;2022-12-05T22:08:52;8.07;;;4.20;;
42134;SDS011;28312;43.460;11.810;2022-12-05T22:12:56;6.55;;;2.83;;
42134;SDS011;28312;43.460;11.810;2022-12-05T22:17:23;5.45;;;2.42;;
42134;SDS011;28312;43.460;11.810;2022-12-05T22:21:27;2.80;;;1.98;;
42134;SDS011;28312;43.460;11.810;2022-12-05T22:25:30;5.93;;;4.05;;
42134;SDS011;28312;43.460;11.810;2022-12-05T22:29:34;3.83;;;2.08;;
42134;SDS011;28312;43.460;11.810;2022-12-05T22:33:37;6.05;;;2.17;;
42134;SDS011;28312;43.460;11.810;2022-12-05T22:37:41;3.13;;;1.90;;
42134;SDS011;28312;43.460;11.810;2022-12-05T22:41:48;4.68;;;2.40;;
42134;SDS011;28312;43.460;11.810;2022-12-05T22:45:52;5.90;;;2.47;;
42134;SDS011;28312;43.460;11.810;2022-12-05T22:49:55;8.48;;;2.58;;
42134;SDS011;28312;43.460;11.810;2022-12-05T22:53:59;3.38;;;1.90;;
42134;SDS011;28312;43.460;11.810;2022-12-05T22:58:03;5.55;;;2.53;;
42134;SDS011;28312;43.460;11.810;2022-12-05T23:02:06;3.03;;;2.05;;
42134;SDS011;28312;43.460;11.810;2022-12-05T23:06:10;3.35;;;2.30;;
42134;SDS011;28312;43.460;11.810;2022-12-05T23:10:16;6.05;;;2.30;;
42134;SDS011;28312;43.460;11.810;2022-12-05T23:14:19;3.10;;;2.20;;
42134;SDS011;28312;43.460;11.810;2022-12-05T23:18:23;2.70;;;1.73;;
42134;SDS011;28312;43.460;11.810;2022-12-05T23:22:26;4.50;;;2.70;;
42134;SDS011;28312;43.460;11.810;2022-12-05T23:26:34;3.63;;;2.42;;
42134;SDS011;28312;43.460;11.810;2022-12-05T23:30:39;3.38;;;2.25;;
42134;SDS011;28312;43.460;11.810;2022-12-05T23:34:43;9.45;;;4.10;;
42134;SDS011;28312;43.460;11.810;2022-12-05T23:38:46;3.83;;;2.38;;
42134;SDS011;28312;43.460;11.810;2022-12-05T23:42:52;3.65;;;2.10;;
42134;SDS011;28312;43.460;11.810;2022-12-05T23:46:58;4.55;;;2.50;;
42134;SDS011;28312;43.460;11.810;2022-12-05T23:51:03;5.63;;;2.83;;
42134;SDS011;28312;43.460;11.810;2022-12-05T23:55:12;4.65;;;2.45;;
42134;SDS011;28312;43.460;11.810;2022-12-05T23:59:16;7.03;;;3.20;;
